Time;durP1;ratioP1;P1;durP2;ratioP2;P2;SDS_P1;SDS_P2;PMS_P1;PMS_P2;Temp;Humidity;BMP_temperature;BMP_pressure;BME280_temperature;BME280_humidity;BME280_pressure;Samples;Min_cycle;Max_cycle;Signal;HPM_P1;HPM_P2
2023/01/23 00:01:27;;;;;;;25.17;12.40;;;;;;;0.85;100.00;103322.41;5035911;28;20049;-92
2023/01/23 00:03:56;;;;;;;27.58;13.50;;;;;;;0.82;100.00;103311.91;5017881;28;20034;-92
2023/01/23 00:06:24;;;;;;;30.92;13.43;;;;;;;0.85;100.00;103328.63;5035959;28;20026;-92
2023/01/23 00:08:50;;;;;;;31.02;13.35;;;;;;;0.76;100.00;103309.59;5001833;28;20041;-91
2023/01/23 00:11:22;;;;;;;25.95;13.13;;;;;;;0.79;100.00;103320.97;5017881;28;20029;-92
2023/01/23 00:13:50;;;;;;;27.70;12.98;;;;;;;0.76;100.00;103302.44;5018514;28;20120;-92
2023/01/23 00:16:22;;;;;;;27.20;13.37;;;;;;;0.77;100.00;103309.50;5018229;28;20058;-92
2023/01/23 00:18:48;;;;;;;30.52;13.25;;;;;;;0.80;100.00;103317.34;5019443;28;20374;-92
2023/01/23 00:21:17;;;;;;;28.23;13.18;;;;;;;0.79;100.00;103312.09;5027705;28;20033;-92
2023/01/23 00:24:01;;;;;;;30.77;13.80;;;;;;;0.76;100.00;103310.44;5026830;28;20095;-92
2023/01/23 00:26:38;;;;;;;28.30;13.80;;;;;;;0.80;100.00;103324.50;5018229;28;20390;-92
2023/01/23 00:29:04;;;;;;;27.77;13.33;;;;;;;0.80;100.00;103319.16;5018156;28;20033;-92
2023/01/23 00:31:32;;;;;;;25.77;12.63;;;;;;;0.80;100.00;103321.84;5017543;28;20609;-91
2023/01/23 00:34:03;;;;;;;31.55;14.07;;;;;;;0.85;100.00;103333.97;5017252;28;20116;-91
2023/01/23 00:36:39;;;;;;;28.92;13.40;;;;;;;0.78;100.00;103323.72;5018158;28;20033;-92
2023/01/23 00:39:17;;;;;;;29.30;12.10;;;;;;;0.80;100.00;103325.38;5018070;28;20025;-93
2023/01/23 00:41:44;;;;;;;28.53;13.27;;;;;;;0.84;100.00;103334.94;5017632;28;20036;-93
2023/01/23 00:44:12;;;;;;;28.10;13.02;;;;;;;0.88;100.00;103340.94;5035416;28;20071;-93
2023/01/23 00:46:38;;;;;;;31.70;13.63;;;;;;;0.83;100.00;103340.38;5017777;28;20055;-92
2023/01/23 00:49:03;;;;;;;32.20;14.10;;;;;;;0.90;100.00;103347.06;5018118;28;20112;-93
2023/01/23 00:51:29;;;;;;;28.17;12.68;;;;;;;0.84;100.00;103336.72;5017274;28;20026;-93
2023/01/23 00:53:58;;;;;;;31.00;13.03;;;;;;;0.93;100.00;103351.34;5018418;28;20029;-93
2023/01/23 00:56:23;;;;;;;30.45;13.40;;;;;;;0.85;100.00;103335.78;5035177;28;20140;-93
2023/01/23 00:58:51;;;;;;;28.13;12.97;;;;;;;0.91;100.00;103338.09;5000569;28;20401;-92
2023/01/23 01:01:24;;;;;;;30.95;13.20;;;;;;;0.85;100.00;103333.97;5017951;28;20040;-92
2023/01/23 01:03:50;;;;;;;30.45;12.73;;;;;;;0.94;100.00;103339.72;5017276;28;20551;-93
2023/01/23 01:06:18;;;;;;;29.38;13.30;;;;;;;0.96;100.00;103340.47;5034660;28;20060;-93
2023/01/23 01:08:44;;;;;;;30.33;12.73;;;;;;;0.91;100.00;103331.88;5035008;28;20025;-93
2023/01/23 01:11:09;;;;;;;29.58;12.88;;;;;;;0.89;100.00;103329.31;5018384;28;20396;-93
2023/01/23 01:13:35;;;;;;;27.57;13.10;;;;;;;0.96;100.00;103338.69;5036513;28;20057;-93
2023/01/23 01:16:06;;;;;;;27.92;12.27;;;;;;;0.92;100.00;103336.28;5017778;28;20469;-93
2023/01/23 01:18:31;;;;;;;29.17;12.90;;;;;;;0.93;100.00;103328.19;5016756;28;20114;-93
2023/01/23 01:20:57;;;;;;;29.17;12.88;;;;;;;0.97;100.00;103329.69;5016841;28;20869;-93
2023/01/23 01:23:30;;;;;;;25.77;12.93;;;;;;;1.00;100.00;103332.19;5016807;28;20030;-93
2023/01/23 01:26:01;;;;;;;25.77;12.50;;;;;;;1.01;100.00;103336.59;5050018;28;20032;-93
2023/01/23 01:28:32;;;;;;;25.88;12.38;;;;;;;1.04;100.00;103348.91;5000221;28;20041;-93
2023/01/23 01:31:03;;;;;;;26.63;12.23;;;;;;;0.99;100.00;103345.66;5034970;28;20036;-92
2023/01/23 01:33:29;;;;;;;22.35;11.63;;;;;;;1.01;100.00;103349.09;5016655;28;20072;-93
2023/01/23 01:35:57;;;;;;;26.03;12.67;;;;;;;1.00;100.00;103342.03;5020576;28;20025;-93
2023/01/23 01:38:26;;;;;;;23.98;11.63;;;;;;;1.04;100.00;103354.28;5016556;28;20036;-93
2023/01/23 01:40:51;;;;;;;25.27;12.07;;;;;;;0.98;100.00;103350.16;5034268;28;20101;-93
2023/01/23 01:43:25;;;;;;;28.17;11.97;;;;;;;1.02;100.00;103351.69;5016787;28;20135;-92
2023/01/23 01:46:17;;;;;;;27.73;12.38;;;;;;;1.08;100.00;103362.97;5017415;28;20032;-92
2023/01/23 01:49:16;;;;;;;27.88;12.55;;;;;;;1.08;100.00;103354.94;5034396;28;20025;-93
2023/01/23 01:51:50;;;;;;;27.83;12.00;;;;;;;1.02;100.00;103359.72;5017954;28;20045;-92
2023/01/23 01:54:24;;;;;;;28.20;12.35;;;;;;;1.06;100.00;103355.03;5050287;28;20017;-93
2023/01/23 01:57:17;;;;;;;24.52;12.52;;;;;;;1.09;100.00;103357.50;5016593;28;20036;-93
2023/01/23 01:59:48;;;;;;;23.00;11.60;;;;;;;1.07;100.00;103356.75;5016142;28;20065;-92
2023/01/23 02:02:37;;;;;;;24.50;12.20;;;;;;;1.08;100.00;103350.47;5016460;28;20500;-92
2023/01/23 02:05:16;;;;;;;28.53;12.53;;;;;;;0.98;100.00;103336.78;5017017;28;20021;-93
2023/01/23 02:07:47;;;;;;;31.02;12.73;;;;;;;1.04;100.00;103349.78;5016409;28;20320;-93
2023/01/23 02:10:15;;;;;;;30.02;11.27;;;;;;;0.98;100.00;103342.13;5015856;28;20495;-93
2023/01/23 02:12:45;;;;;;;33.53;11.77;;;;;;;1.02;100.00;103342.81;5034338;28;20113;-93
2023/01/23 02:15:13;;;;;;;31.75;12.15;;;;;;;0.99;100.00;103337.63;5034200;28;20167;-93
2023/01/23 02:17:39;;;;;;;26.73;11.50;;;;;;;1.02;100.00;103350.84;5016664;28;20045;-92
2023/01/23 02:20:27;;;;;;;25.83;12.13;;;;;;;1.05;100.00;103343.47;5020263;28;20272;-93
2023/01/23 02:23:14;;;;;;;25.52;11.77;;;;;;;1.05;100.00;103356.84;5020424;28;20033;-92
2023/01/23 02:25:54;;;;;;;27.83;12.32;;;;;;;0.97;100.00;103334.19;5020307;28;20116;-92
2023/01/23 02:28:20;;;;;;;33.80;13.55;;;;;;;0.98;100.00;103343.94;5020499;28;20087;-92
2023/01/23 02:30:49;;;;;;;25.75;12.48;;;;;;;0.98;100.00;103344.78;5037710;28;20112;-92
2023/01/23 02:33:18;;;;;;;25.58;12.63;;;;;;;1.05;100.00;103351.50;5019285;28;20022;-93
2023/01/23 02:35:44;;;;;;;31.85;13.30;;;;;;;0.99;100.00;103337.63;5019772;28;20036;-92
2023/01/23 02:38:13;;;;;;;31.88;12.38;;;;;;;1.06;100.00;103347.00;5020069;28;20021;-93
2023/01/23 02:40:41;;;;;;;30.83;12.90;;;;;;;1.00;100.00;103340.22;5019695;28;20036;-93
2023/01/23 02:43:11;;;;;;;30.97;12.27;;;;;;;1.03;100.00;103344.53;5019905;28;20037;-93
2023/01/23 02:45:44;;;;;;;29.60;12.70;;;;;;;1.00;100.00;103340.22;5037775;28;20029;-93
2023/01/23 02:48:10;;;;;;;30.63;13.18;;;;;;;1.08;100.00;103352.25;5020371;28;20033;-93
2023/01/23 02:50:35;;;;;;;32.67;12.67;;;;;;;1.02;100.00;103335.66;5038112;28;20037;-93
2023/01/23 02:53:01;;;;;;;25.05;12.35;;;;;;;1.09;100.00;103349.50;5037648;28;20030;-93
2023/01/23 02:55:29;;;;;;;30.03;12.47;;;;;;;1.03;100.00;103336.50;5019572;28;20474;-93
2023/01/23 03:00:45;;;;;;;28.43;12.33;;;;;;;1.11;100.00;103358.31;5022530;28;20055;-93
2023/01/23 03:03:11;;;;;;;29.52;11.57;;;;;;;1.05;100.00;103343.47;5003018;28;20740;-93
2023/01/23 03:05:38;;;;;;;30.67;13.30;;;;;;;1.04;100.00;103347.09;5019248;28;20524;-93
2023/01/23 03:08:04;;;;;;;29.50;12.98;;;;;;;1.06;100.00;103341.66;5019334;28;20025;-93
2023/01/23 03:10:30;;;;;;;25.63;12.25;;;;;;;1.04;100.00;103347.09;5019757;28;20032;-93
2023/01/23 03:13:00;;;;;;;34.70;13.70;;;;;;;1.11;100.00;103360.09;5038414;28;20021;-93
2023/01/23 03:15:44;;;;;;;28.30;13.00;;;;;;;1.07;100.00;103353.22;5043123;28;20052;-93
2023/01/23 03:18:12;;;;;;;30.30;13.45;;;;;;;1.05;100.00;103338.13;5021508;28;20037;-93
2023/01/23 03:20:41;;;;;;;28.58;12.70;;;;;;;1.12;100.00;103356.47;5003517;28;20041;-93
2023/01/23 03:23:17;;;;;;;;;;;;;;;;;;;;;
2023/01/23 03:25:47;;;;;;;29.90;12.27;;;;;;;1.04;100.00;103344.44;5036682;28;20032;-93
2023/01/23 03:30:59;;;;;;;27.13;13.05;;;;;;;1.15;100.00;103361.63;5036791;28;20583;-92
2023/01/23 03:33:29;;;;;;;24.58;12.23;;;;;;;1.15;100.00;103369.66;5001895;28;20068;-93
2023/01/23 03:35:59;;;;;;;26.77;12.35;;;;;;;1.15;100.00;103361.63;5003594;28;20029;-93
2023/01/23 03:38:25;;;;;;;26.33;12.37;;;;;;;1.10;100.00;103353.91;5036702;28;20033;-93
2023/01/23 03:43:34;;;;;;;31.35;13.18;;;;;;;1.14;100.00;103357.28;5037000;28;20052;-93
2023/01/23 03:46:02;;;;;;;28.20;13.27;;;;;;;1.14;100.00;103355.44;5019639;28;20033;-93
2023/01/23 03:48:28;;;;;;;24.23;12.55;;;;;;;1.20;100.00;103368.44;5018769;28;20044;-93
2023/01/23 03:50:53;;;;;;;27.83;12.73;;;;;;;1.21;100.00;103370.19;5002428;28;20033;-93
2023/01/23 03:53:18;;;;;;;31.10;12.93;;;;;;;1.14;100.00;103343.91;5018615;28;20547;-92
2023/01/23 03:55:45;;;;;;;34.10;12.93;;;;;;;1.20;100.00;103365.78;5002077;28;20120;-93
2023/01/23 03:58:11;;;;;;;26.02;12.95;;;;;;;1.20;100.00;103362.25;5018513;28;20484;-92
2023/01/23 04:00:36;;;;;;;26.07;12.60;;;;;;;1.21;100.00;103370.19;5002325;28;20029;-92
2023/01/23 04:03:02;;;;;;;30.03;12.73;;;;;;;1.21;100.00;103364.81;5018125;28;20358;-93
2023/01/23 04:05:27;;;;;;;30.80;13.27;;;;;;;1.22;100.00;103355.81;5018339;28;20485;-92
2023/01/23 04:07:55;;;;;;;29.10;12.67;;;;;;;1.21;100.00;103345.22;5019050;28;20037;-93
2023/01/23 04:10:20;;;;;;;27.40;13.05;;;;;;;1.16;100.00;103350.00;5018679;28;20028;-93
2023/01/23 04:12:46;;;;;;;26.17;12.27;;;;;;;1.21;100.00;103355.91;5036000;28;20369;-92
2023/01/23 04:15:12;;;;;;;27.38;12.88;;;;;;;1.21;100.00;103356.81;5001512;28;20280;-93
2023/01/23 04:17:44;;;;;;;31.10;13.80;;;;;;;1.22;100.00;103361.19;5019932;28;20033;-89
2023/01/23 04:20:17;;;;;;;29.63;13.10;;;;;;;1.22;100.00;103357.66;5037904;28;20044;-89
2023/01/23 04:22:42;;;;;;;23.92;12.45;;;;;;;1.21;100.00;103362.16;5022975;28;20553;-89
2023/01/23 04:25:18;;;;;;;29.73;12.63;;;;;;;1.22;100.00;103357.66;5037303;28;20025;-89
2023/01/23 04:27:44;;;;;;;26.05;12.73;;;;;;;1.24;100.00;103355.75;5035466;28;20112;-89
2023/01/23 04:30:19;;;;;;;29.63;13.90;;;;;;;1.23;100.00;103356.72;5017587;28;20025;-89
2023/01/23 04:32:47;;;;;;;30.15;13.32;;;;;;;1.22;100.00;103358.50;5001854;28;20067;-89
2023/01/23 04:35:14;;;;;;;29.55;12.45;;;;;;;1.23;100.00;103370.09;5035130;28;20079;-89
2023/01/23 04:37:40;;;;;;;29.77;12.75;;;;;;;1.26;100.00;103372.56;5035493;28;20040;-89
2023/01/23 04:40:06;;;;;;;24.67;12.30;;;;;;;1.22;100.00;103369.19;5017535;28;20029;-89
2023/01/23 04:42:34;;;;;;;30.17;13.20;;;;;;;1.23;100.00;103378.09;5016460;28;20128;-89
2023/01/23 04:44:59;;;;;;;31.55;13.52;;;;;;;1.25;100.00;103372.66;5001035;28;20049;-89
2023/01/23 04:47:25;;;;;;;26.70;12.10;;;;;;;1.23;100.00;103368.25;5017337;28;20021;-88
2023/01/23 04:49:53;;;;;;;25.23;12.07;;;;;;;1.24;100.00;103366.47;5017875;28;20033;-88
2023/01/23 04:52:23;;;;;;;30.58;13.20;;;;;;;1.22;100.00;103373.69;5017278;28;20367;-88
2023/01/23 04:54:49;;;;;;;31.73;13.93;;;;;;;1.23;100.00;103370.09;5017743;28;20140;-88
2023/01/23 04:57:16;;;;;;;30.23;12.90;;;;;;;1.25;100.00;103376.19;5016987;28;20129;-89
2023/01/23 04:59:42;;;;;;;28.02;13.80;;;;;;;1.24;100.00;103382.50;5016828;28;20049;-89
2023/01/23 05:02:10;;;;;;;31.43;13.67;;;;;;;1.27;100.00;103385.00;5016570;28;20551;-89
2023/01/23 05:04:35;;;;;;;27.08;13.40;;;;;;;1.26;100.00;103383.28;5016741;28;20052;-89
2023/01/23 05:07:01;;;;;;;30.63;13.07;;;;;;;1.26;100.00;103385.09;5016164;28;20466;-89
2023/01/23 05:09:27;;;;;;;33.67;12.85;;;;;;;1.27;100.00;103386.78;5033960;28;20451;-90
2023/01/23 05:11:52;;;;;;;32.77;13.70;;;;;;;1.27;100.00;103392.16;5017117;28;20076;-89
2023/01/23 05:14:21;;;;;;;29.15;13.10;;;;;;;1.29;100.00;103387.59;5016836;28;20473;-89
2023/01/23 05:16:46;;;;;;;27.37;13.27;;;;;;;1.31;100.00;103389.19;5033436;28;20026;-89
2023/01/23 05:19:19;;;;;;;29.42;13.07;;;;;;;1.33;100.00;103389.09;5034712;28;20036;-89
2023/01/23 05:21:45;;;;;;;30.88;13.20;;;;;;;1.34;100.00;103397.03;5017411;28;20405;-89
2023/01/23 05:24:10;;;;;;;26.73;12.93;;;;;;;1.33;100.00;103386.41;5016380;28;20080;-89
2023/01/23 05:26:39;;;;;;;30.93;12.87;;;;;;;1.36;100.00;103394.28;5016417;28;20075;-89
2023/01/23 05:29:14;;;;;;;31.08;13.32;;;;;;;1.34;100.00;103393.50;5016955;28;20018;-89
2023/01/23 05:31:43;;;;;;;27.05;12.82;;;;;;;1.34;100.00;103399.69;5033107;28;20037;-89
2023/01/23 05:34:08;;;;;;;31.73;13.02;;;;;;;1.31;100.00;103404.38;5000133;28;20075;-89
2023/01/23 05:36:34;;;;;;;30.77;13.20;;;;;;;1.30;100.00;103402.66;5016510;28;20029;-88
2023/01/23 05:39:01;;;;;;;28.73;12.97;;;;;;;1.29;100.00;103398.28;5016489;28;20037;-89
2023/01/23 05:41:27;;;;;;;30.25;13.63;;;;;;;1.29;100.00;103399.13;5034241;28;20028;-89
2023/01/23 05:43:53;;;;;;;31.00;13.63;;;;;;;1.30;100.00;103394.63;5033996;28;20025;-89
2023/01/23 05:46:18;;;;;;;28.98;13.60;;;;;;;1.28;100.00;103399.22;5017344;28;20036;-89
2023/01/23 05:48:46;;;;;;;34.10;13.93;;;;;;;1.28;100.00;103399.22;5035224;28;20022;-89
2023/01/23 05:51:12;;;;;;;29.27;13.30;;;;;;;1.29;100.00;103411.66;5028887;28;20053;-90
2023/01/23 05:53:40;;;;;;;32.17;15.43;;;;;;;1.30;100.00;103405.31;5027178;28;20036;-89
2023/01/23 05:56:07;;;;;;;28.48;13.63;;;;;;;1.30;100.00;103410.69;5047074;28;20049;-90
2023/01/23 05:58:32;;;;;;;27.58;12.88;;;;;;;1.30;100.00;103408.00;5019899;28;20084;-90
2023/01/23 06:00:58;;;;;;;28.20;13.07;;;;;;;1.33;100.00;103405.16;5016752;28;20057;-89
2023/01/23 06:03:23;;;;;;;26.97;12.83;;;;;;;1.35;100.00;103413.97;5016939;28;20435;-89
2023/01/23 06:05:49;;;;;;;28.67;13.10;;;;;;;1.37;100.00;103420.94;5034080;28;20429;-87
2023/01/23 06:08:17;;;;;;;29.85;13.68;;;;;;;1.36;100.00;103421.88;5016127;28;20060;-87
2023/01/23 06:10:42;;;;;;;30.83;13.30;;;;;;;1.38;100.00;103422.66;5033954;28;20033;-87
2023/01/23 06:13:08;;;;;;;30.77;13.77;;;;;;;1.38;100.00;103427.16;5034755;28;20037;-93
2023/01/23 06:15:33;;;;;;;29.90;13.10;;;;;;;1.39;100.00;103428.88;5017362;28;20077;-93
2023/01/23 06:18:01;;;;;;;31.75;14.63;;;;;;;1.36;100.00;103413.88;5016672;28;20382;-95
2023/01/23 06:20:38;;;;;;;30.02;13.20;;;;;;;1.36;100.00;103427.25;5034835;28;20029;-93
2023/01/23 06:23:09;;;;;;;35.83;14.20;;;;;;;1.36;100.00;103424.56;5016457;28;20029;-93
2023/01/23 06:25:37;;;;;;;31.42;14.73;;;;;;;1.33;100.00;103429.22;5015709;28;20040;-90
2023/01/23 06:28:05;;;;;;;29.90;13.02;;;;;;;1.35;100.00;103427.34;4999288;28;20025;-88
2023/01/23 06:30:30;;;;;;;31.63;14.07;;;;;;;1.33;100.00;103434.56;4999504;28;20029;-90
2023/01/23 06:33:02;;;;;;;30.88;13.95;;;;;;;1.35;100.00;103430.00;5015969;28;20326;-90
2023/01/23 06:35:30;;;;;;;32.30;13.80;;;;;;;1.33;100.00;103432.78;5016086;28;20508;-89
2023/01/23 06:37:58;;;;;;;30.83;14.20;;;;;;;1.33;100.00;103432.78;5015134;28;20072;-88
2023/01/23 06:40:26;;;;;;;30.40;13.63;;;;;;;1.35;100.00;103433.53;5015553;28;20091;-87
2023/01/23 06:42:53;;;;;;;34.05;14.40;;;;;;;1.38;100.00;103437.84;5015741;28;20084;-88
2023/01/23 06:45:19;;;;;;;32.72;14.43;;;;;;;1.35;100.00;103430.00;5033210;28;20041;-87
2023/01/23 06:47:45;;;;;;;27.27;12.53;;;;;;;1.40;100.00;103435.94;5033333;28;20033;-86
2023/01/23 06:50:10;;;;;;;29.97;14.10;;;;;;;1.38;100.00;103433.34;5015547;28;20068;-86
2023/01/23 06:52:36;;;;;;;33.58;14.75;;;;;;;1.37;100.00;103426.31;4999107;28;20040;-86
2023/01/23 06:55:01;;;;;;;32.70;14.90;;;;;;;1.40;100.00;103435.94;5015314;28;20362;-88
2023/01/23 06:57:27;;;;;;;33.25;14.23;;;;;;;1.38;100.00;103437.84;5014901;28;20418;-85
2023/01/23 06:59:52;;;;;;;29.60;13.13;;;;;;;1.37;100.00;103433.44;5015004;28;20091;-86
2023/01/23 07:02:18;;;;;;;30.70;14.03;;;;;;;1.38;100.00;103436.03;5015134;28;20387;-86
2023/01/23 07:04:43;;;;;;;31.77;13.13;;;;;;;1.40;100.00;103450.19;5016693;28;20037;-86
2023/01/23 07:07:11;;;;;;;27.38;13.25;;;;;;;1.41;100.00;103448.38;5018377;28;20068;-86
2023/01/23 07:09:37;;;;;;;27.33;12.33;;;;;;;1.44;100.00;103450.84;5019594;28;20029;-86
2023/01/23 07:12:05;;;;;;;28.42;13.45;;;;;;;1.47;100.00;103450.66;5018204;28;20156;-86
2023/01/23 07:14:31;;;;;;;28.70;13.00;;;;;;;1.46;100.00;103456.13;5018770;28;20025;-86
2023/01/23 07:16:58;;;;;;;31.80;14.15;;;;;;;1.49;100.00;103455.94;5019162;28;20030;-86
2023/01/23 07:19:26;;;;;;;31.77;14.40;;;;;;;1.50;100.00;103463.00;5018869;28;20044;-87
2023/01/23 07:21:51;;;;;;;33.85;14.25;;;;;;;1.48;100.00;103457.75;5019435;28;20787;-86
2023/01/23 07:24:16;;;;;;;29.13;13.97;;;;;;;1.48;100.00;103459.59;4986241;28;20041;-85
2023/01/23 07:26:42;;;;;;;32.47;13.82;;;;;;;1.49;100.00;103450.56;5036540;28;20284;-86
2023/01/23 07:29:13;;;;;;;38.03;13.97;;;;;;;1.54;100.00;103469.91;5037528;28;20032;-87
2023/01/23 07:31:41;;;;;;;28.58;13.30;;;;;;;1.53;100.00;103466.34;5019201;28;20091;-86
2023/01/23 07:34:12;;;;;;;33.47;14.02;;;;;;;1.57;100.00;103464.38;5019258;28;20033;-87
2023/01/23 07:36:40;;;;;;;27.85;13.95;;;;;;;1.57;100.00;103481.28;5020147;28;20571;-86
2023/01/23 07:39:05;;;;;;;29.05;13.15;;;;;;;1.58;100.00;103479.50;5018423;28;20029;-86
2023/01/23 07:41:31;;;;;;;30.58;13.60;;;;;;;1.58;100.00;103476.81;5018498;28;20392;-86
2023/01/23 07:44:01;;;;;;;27.85;13.02;;;;;;;1.59;100.00;103486.53;5018189;28;20056;-86
2023/01/23 07:46:29;;;;;;;31.67;13.90;;;;;;;1.59;100.00;103481.19;5035548;28;20030;-86
2023/01/23 07:48:55;;;;;;;32.40;13.53;;;;;;;1.64;100.00;103491.63;5018081;28;20120;-87
2023/01/23 07:51:20;;;;;;;27.60;13.38;;;;;;;1.66;100.00;103489.72;5018371;28;20516;-86
2023/01/23 07:53:48;;;;;;;25.80;12.80;;;;;;;1.68;100.00;103499.41;5034224;28;20060;-86
2023/01/23 07:56:14;;;;;;;27.63;13.15;;;;;;;1.70;100.00;103486.78;5017994;28;20052;-85
2023/01/23 07:58:39;;;;;;;32.83;13.23;;;;;;;1.71;100.00;103499.22;5017919;28;20537;-86
2023/01/23 08:01:09;;;;;;;30.83;13.13;;;;;;;1.77;100.00;103508.66;5018289;28;20037;-85
2023/01/23 08:03:37;;;;;;;32.58;14.07;;;;;;;1.75;100.00;103506.06;5017869;28;20500;-86
2023/01/23 08:06:03;;;;;;;28.58;13.07;;;;;;;1.75;100.00;103499.88;5035749;28;20037;-86
2023/01/23 08:08:30;;;;;;;25.20;13.32;;;;;;;1.75;100.00;103502.56;5018556;28;20037;-87
2023/01/23 08:10:58;;;;;;;27.93;13.07;;;;;;;1.77;100.00;103500.63;5035853;28;20040;-87
2023/01/23 08:13:24;;;;;;;26.40;13.35;;;;;;;1.82;100.00;103503.06;5035465;28;20031;-86
2023/01/23 08:15:52;;;;;;;30.48;14.00;;;;;;;1.83;100.00;103507.44;5017294;28;20032;-86
2023/01/23 08:18:19;;;;;;;25.80;13.03;;;;;;;1.81;100.00;103498.66;5035251;28;20113;-87
2023/01/23 08:20:55;;;;;;;29.30;13.40;;;;;;;1.83;100.00;103508.31;5017767;28;20035;-86
2023/01/23 08:23:27;;;;;;;29.42;13.93;;;;;;;1.86;100.00;103510.81;5035398;28;20029;-86
2023/01/23 08:26:02;;;;;;;27.23;13.27;;;;;;;1.88;100.00;103511.56;5018431;28;20032;-87
2023/01/23 08:28:27;;;;;;;28.05;13.82;;;;;;;1.92;100.00;103501.53;5035023;28;20516;-86
2023/01/23 08:30:53;;;;;;;30.57;13.13;;;;;;;1.97;100.00;103509.28;5017458;28;20033;-87
2023/01/23 08:33:22;;;;;;;28.75;13.23;;;;;;;2.01;100.00;103510.81;5000502;28;20520;-87
2023/01/23 08:35:52;;;;;;;28.63;13.47;;;;;;;2.04;100.00;103513.31;5035204;28;20134;-86
2023/01/23 08:38:18;;;;;;;29.00;14.45;;;;;;;2.05;100.00;103515.91;5017802;28;20037;-85
2023/01/23 08:40:45;;;;;;;28.67;13.60;;;;;;;2.07;100.00;103516.66;5035158;28;20105;-85
2023/01/23 08:43:12;;;;;;;28.45;12.80;;;;;;;2.11;100.00;103514.66;5017547;28;20069;-86
2023/01/23 08:45:48;;;;;;;27.58;12.93;;;;;;;2.14;100.00;103516.28;5017294;28;20520;-85
2023/01/23 08:48:17;;;;;;;30.10;14.02;;;;;;;2.19;100.00;103523.09;5034877;28;20029;-87
2023/01/23 08:50:43;;;;;;;27.40;13.18;;;;;;;2.20;100.00;103530.19;5034399;28;20030;-87
2023/01/23 08:53:10;;;;;;;25.10;12.88;;;;;;;2.20;100.00;103519.47;5017391;28;20048;-86
2023/01/23 08:55:37;;;;;;;27.63;12.57;;;;;;;2.26;100.00;103523.59;5035209;28;20034;-87
2023/01/23 08:58:11;;;;;;;27.92;12.77;;;;;;;2.28;100.00;103529.69;5034585;28;20052;-87
2023/01/23 09:00:37;;;;;;;31.17;12.57;;;;;;;2.33;100.00;103527.56;5016453;28;20072;-86
2023/01/23 09:03:03;;;;;;;28.15;13.18;;;;;;;2.34;100.00;103526.63;5034264;28;20041;-87
2023/01/23 09:05:35;;;;;;;26.40;13.30;;;;;;;2.38;100.00;103527.31;5034545;28;20025;-86
2023/01/23 09:08:00;;;;;;;26.58;13.02;;;;;;;2.42;100.00;103526.16;5016743;28;20065;-86
2023/01/23 09:10:26;;;;;;;29.65;13.48;;;;;;;2.45;100.00;103525.94;5034384;28;20072;-86
2023/01/23 09:12:53;;;;;;;26.67;12.73;;;;;;;2.49;100.00;103527.50;5017236;28;20080;-86
2023/01/23 09:15:23;;;;;;;27.40;13.20;;;;;;;2.51;100.00;103532.75;5016674;28;20470;-86
2023/01/23 09:17:49;;;;;;;29.15;13.82;;;;;;;2.56;100.00;103544.06;5034365;28;20044;-86
2023/01/23 09:20:15;;;;;;;24.30;12.47;;;;;;;2.56;100.00;103531.50;5017091;28;20108;-86
2023/01/23 09:22:46;;;;;;;26.38;13.00;;;;;;;2.63;100.00;103529.31;5016351;28;20537;-86
2023/01/23 09:25:13;;;;;;;25.83;12.57;;;;;;;2.71;100.00;103528.81;5016766;28;20495;-86
2023/01/23 09:27:38;;;;;;;27.58;12.77;;;;;;;2.74;100.00;103528.63;5016443;28;20100;-86
2023/01/23 09:30:05;;;;;;;33.08;13.50;;;;;;;2.76;100.00;103530.25;5034524;28;20564;-86
2023/01/23 09:32:33;;;;;;;28.63;12.35;;;;;;;2.86;100.00;103526.97;5034156;28;20061;-86
2023/01/23 09:35:03;;;;;;;34.80;12.97;;;;;;;2.95;100.00;103518.34;5016054;28;20025;-86
2023/01/23 09:37:58;;;;;;;25.88;12.43;;;;;;;3.13;100.00;103522.50;5034310;28;20330;-86
2023/01/23 09:40:17;;;;;;;28.88;13.18;;;;;;;3.26;100.00;103521.69;5033796;28;20129;-86
2023/01/23 09:42:43;;;;;;;23.10;11.82;;;;;;;3.36;100.00;103524.63;5016855;28;20186;-86
2023/01/23 09:45:15;;;;;;;26.60;12.33;;;;;;;3.40;100.00;103526.16;5015825;28;20496;-86
2023/01/23 09:47:54;;;;;;;25.15;13.00;;;;;;;3.45;100.00;103516.81;5016113;28;20291;-86
2023/01/23 09:50:35;;;;;;;23.08;12.40;;;;;;;3.47;100.00;103528.31;5034214;28;20439;-86
2023/01/23 09:53:17;;;;;;;22.13;11.90;;;;;;;3.55;100.00;103543.91;5034298;28;20029;-86
2023/01/23 09:55:48;;;;;;;27.20;12.77;;;;;;;3.60;100.00;103548.97;5033398;28;20033;-86
2023/01/23 09:58:22;;;;;;;24.02;12.65;;;;;;;3.64;100.00;103553.16;5033792;28;20037;-86
2023/01/23 10:00:52;;;;;;;24.75;12.70;;;;;;;3.60;100.00;103555.22;5016037;28;20050;-86
2023/01/23 10:03:19;;;;;;;24.50;12.18;;;;;;;3.64;100.00;103547.81;5016230;28;20377;-86
2023/01/23 10:06:09;;;;;;;22.48;11.55;;;;;;;3.68;100.00;103544.81;5015605;28;20036;-86
2023/01/23 10:08:59;;;;;;;22.58;11.43;;;;;;;3.75;100.00;103544.38;5015793;28;20033;-87
2023/01/23 10:11:37;;;;;;;25.30;12.60;;;;;;;3.76;100.00;103548.78;5016708;28;20457;-86
2023/01/23 10:14:44;;;;;;;23.63;12.00;;;;;;;3.80;100.00;103548.47;5016107;28;20040;-87
2023/01/23 10:17:45;;;;;;;22.92;11.73;;;;;;;3.81;100.00;103544.84;5033267;28;20041;-87
2023/01/23 10:21:01;;;;;;;21.45;11.50;;;;;;;3.89;100.00;103546.16;5033411;28;20104;-87
2023/01/23 10:23:53;;;;;;;26.20;11.52;;;;;;;3.98;100.00;103551.72;4983347;28;20092;-87
2023/01/23 10:26:26;;;;;;;22.05;11.93;;;;;;;3.97;100.00;103543.78;5015793;28;20037;-87
2023/01/23 10:29:28;;;;;;;22.27;11.55;;;;;;;4.03;100.00;103554.97;5015895;28;20148;-86
2023/01/23 10:32:00;;;;;;;23.13;11.35;;;;;;;3.98;100.00;103551.72;5006171;28;20052;-87
2023/01/23 10:34:50;;;;;;;24.83;11.25;;;;;;;4.00;100.00;103555.19;5034483;28;20159;-86
2023/01/23 10:37:31;;;;;;;21.08;11.15;;;;;;;3.98;100.00;103546.34;5033614;28;20041;-87
2023/01/23 10:40:01;;;;;;;20.38;10.80;;;;;;;4.01;100.00;103545.28;5018540;28;20029;-87
2023/01/23 10:42:27;;;;;;;21.77;11.30;;;;;;;4.03;100.00;103544.22;5037836;28;20029;-88
2023/01/23 10:45:02;;;;;;;20.90;11.60;;;;;;;4.06;100.00;103542.28;5039970;28;20033;-87
2023/01/23 10:47:35;;;;;;;20.25;11.40;;;;;;;4.07;100.00;103538.63;5022565;28;20053;-87
2023/01/23 10:50:02;;;;;;;22.88;11.50;;;;;;;4.12;100.00;103537.34;5038968;28;20033;-87
2023/01/23 10:52:29;;;;;;;25.98;12.07;;;;;;;4.13;100.00;103539.06;5020211;28;20036;-87
2023/01/23 10:54:57;;;;;;;25.05;11.32;;;;;;;4.16;100.00;103538.00;5037538;28;20025;-87
2023/01/23 10:57:35;;;;;;;21.05;10.65;;;;;;;4.19;100.00;103540.47;5019398;28;20076;-87
2023/01/23 11:00:38;;;;;;;20.50;11.32;;;;;;;4.22;100.00;103535.75;5003762;28;20127;-87
2023/01/23 11:03:27;;;;;;;21.33;11.32;;;;;;;4.29;100.00;103540.69;5036945;28;20078;-91
2023/01/23 11:06:08;;;;;;;20.92;11.07;;;;;;;4.27;100.00;103542.63;5019324;28;20061;-87
2023/01/23 11:08:50;;;;;;;23.80;11.05;;;;;;;4.23;100.00;103539.28;5018931;28;20029;-87
2023/01/23 11:11:31;;;;;;;24.17;10.90;;;;;;;4.20;100.00;103532.28;5018748;28;20120;-87
2023/01/23 11:14:14;;;;;;;22.65;12.00;;;;;;;4.30;100.00;103535.19;5018818;28;20029;-87
2023/01/23 11:16:39;;;;;;;22.60;11.77;;;;;;;4.32;100.00;103529.72;5036370;28;20087;-87
2023/01/23 11:19:08;;;;;;;20.50;11.27;;;;;;;4.38;100.00;103529.28;5019140;28;20045;-86
2023/01/23 11:21:36;;;;;;;23.08;12.05;;;;;;;4.37;100.00;103528.44;5018635;28;20128;-87
2023/01/23 11:24:29;;;;;;;23.83;11.05;;;;;;;4.51;100.00;103537.34;5019163;28;20029;-87
2023/01/23 11:27:28;;;;;;;19.85;11.35;;;;;;;4.53;100.00;103524.63;5037020;28;20032;-88
2023/01/23 11:29:59;;;;;;;22.25;11.38;;;;;;;4.65;100.00;103542.59;5034120;28;20095;-87
2023/01/23 11:32:32;;;;;;;23.95;11.25;;;;;;;4.68;99.34;103537.00;5018680;28;20056;-87
2023/01/23 11:35:21;;;;;;;20.55;11.13;;;;;;;4.79;99.88;103536.22;5018602;28;20469;-87